createdAt,value
2022-09-01T00:03:11.369Z,17.05
2022-09-01T00:14:29.386Z,16.82
2022-09-01T00:25:13.995Z,16.62
2022-09-01T00:36:15.471Z,16.62
2022-09-01T00:47:13.273Z,16.56
2022-09-01T00:58:19.469Z,16.66
2022-09-01T01:09:16.671Z,16.52
2022-09-01T01:20:11.599Z,16.35
2022-09-01T01:31:12.073Z,16.27
2022-09-01T01:42:15.496Z,16.16
2022-09-01T01:53:17.079Z,16.18
2022-09-01T02:04:16.742Z,16.15
2022-09-01T02:15:19.159Z,15.96
2022-09-01T02:26:18.616Z,16.01
2022-09-01T02:36:56.684Z,16.26
2022-09-01T02:47:53.974Z,16.22
2022-09-01T02:58:49.191Z,15.91
2022-09-01T03:09:47.656Z,15.92
2022-09-01T03:20:46.802Z,15.81
2022-09-01T03:31:46.381Z,15.71
2022-09-01T03:42:39.901Z,15.42
2022-09-01T03:53:40.466Z,15.33
2022-09-01T04:04:38.505Z,15.35
2022-09-01T04:15:37.565Z,15.28
2022-09-01T04:26:40.476Z,15.27
2022-09-01T04:37:45.320Z,15.28
2022-09-01T04:48:48.037Z,15.28
2022-09-01T04:59:49.887Z,15.15
2022-09-01T05:10:47.699Z,15.28
2022-09-01T05:21:48.695Z,15.23
2022-09-01T05:32:47.348Z,15.28
2022-09-01T05:43:49.276Z,15.51
2022-09-01T05:54:51.432Z,15.73
2022-09-01T06:05:53.302Z,16.14
2022-09-01T06:16:52.108Z,16.29
2022-09-01T06:27:40.089Z,16.82
2022-09-01T06:38:38.395Z,16.84
2022-09-01T06:49:39.832Z,17.32
2022-09-01T07:00:37.756Z,17.73
2022-09-01T07:22:35.842Z,18.14
2022-09-01T07:32:53.981Z,18.02
2022-09-01T07:43:37.318Z,17.89
2022-09-01T07:54:30.343Z,17.95
2022-09-01T08:05:05.511Z,18.09
2022-09-01T08:26:55.895Z,19.13
2022-09-01T08:37:39.092Z,19.69
2022-09-01T08:49:23.773Z,20.00
2022-09-01T08:59:36.020Z,20.40
2022-09-01T09:10:31.372Z,20.53
2022-09-01T09:21:30.029Z,20.94
2022-09-01T09:32:51.694Z,21.53
2022-09-01T09:43:25.630Z,21.48
2022-09-01T09:54:22.817Z,22.19
2022-09-01T10:05:22.582Z,22.47
2022-09-01T10:15:56.732Z,21.85
2022-09-01T10:26:58.791Z,22.15
2022-09-01T10:37:34.674Z,23.18
2022-09-01T10:48:31.885Z,22.97
2022-09-01T10:59:38.979Z,22.63
2022-09-01T11:10:34.600Z,21.97
2022-09-01T11:21:21.091Z,21.91
2022-09-01T11:32:18.666Z,21.69
2022-09-01T11:43:08.107Z,20.62
2022-09-01T11:54:10.864Z,21.16
2022-09-01T12:04:53.111Z,21.91
2022-09-01T12:15:32.228Z,22.00
2022-09-01T12:26:30.113Z,21.41
2022-09-01T12:37:28.198Z,20.86
2022-09-01T12:48:23.670Z,20.76
2022-09-01T12:59:15.824Z,20.68
2022-09-01T13:10:13.574Z,20.59
2022-09-01T13:21:11.631Z,20.35
2022-09-01T13:32:22.503Z,20.59
2022-09-01T13:42:59.659Z,20.89
2022-09-01T13:53:59.494Z,21.56
2022-09-01T14:04:53.669Z,21.57
2022-09-01T14:15:46.307Z,22.04
2022-09-01T14:26:30.957Z,22.02
2022-09-01T14:37:23.485Z,22.37
2022-09-01T14:48:01.569Z,22.67
2022-09-01T14:58:34.331Z,22.28
2022-09-01T15:09:07.176Z,22.01
2022-09-01T15:19:46.781Z,21.67
2022-09-01T15:30:35.456Z,21.19
2022-09-01T15:41:14.694Z,21.01
2022-09-01T15:51:49.120Z,20.57
2022-09-01T16:02:47.811Z,20.42
2022-09-01T16:13:46.102Z,20.38
2022-09-01T16:24:40.856Z,20.08
2022-09-01T16:35:29.794Z,19.86
2022-09-01T16:46:06.896Z,19.40
2022-09-01T16:57:03.799Z,19.38
2022-09-01T17:08:02.184Z,18.99
2022-09-01T17:19:01.961Z,19.02
2022-09-01T17:30:01.344Z,19.05
2022-09-01T17:40:53.854Z,18.76
2022-09-01T17:51:45.303Z,18.99
2022-09-01T18:02:40.131Z,18.89
2022-09-01T18:13:30.637Z,18.83
2022-09-01T18:24:08.423Z,18.59
2022-09-01T18:35:05.643Z,18.39
2022-09-01T18:46:05.129Z,18.28
2022-09-01T18:57:05.149Z,18.04
2022-09-01T19:08:01.615Z,17.91
2022-09-01T19:18:56.791Z,17.66
2022-09-01T19:29:56.275Z,17.58
2022-09-01T19:40:57.299Z,17.66
2022-09-01T19:51:56.129Z,17.57
2022-09-01T20:02:56.115Z,17.57
2022-09-01T20:13:52.439Z,17.54
2022-09-01T20:24:47.590Z,17.33
2022-09-01T20:35:47.058Z,17.30
2022-09-01T20:46:33.517Z,17.07
2022-09-01T20:57:33.794Z,16.95
2022-09-01T21:08:34.453Z,16.82
2022-09-01T21:19:33.758Z,16.89
2022-09-01T21:30:31.049Z,16.96
2022-09-01T21:41:29.815Z,16.92
2022-09-01T21:52:29.979Z,16.80
2022-09-01T22:03:09.526Z,16.74
2022-09-01T22:14:09.913Z,16.78
2022-09-01T22:25:10.722Z,16.71
2022-09-01T22:36:10.859Z,16.62
2022-09-01T22:47:05.681Z,16.53
2022-09-01T22:58:06.692Z,16.50
2022-09-01T23:09:05.580Z,16.52
2022-09-01T23:20:07.730Z,16.40
2022-09-01T23:31:09.182Z,16.38
2022-09-01T23:42:11.260Z,16.29
2022-09-01T23:53:13.080Z,16.16
